sensor_id;sensor_type;location;lat;lon;timestamp;P1;durP1;ratioP1;P2;durP2;ratioP2
2225;SDS011;1119;48.288;8.726;2022-11-18T00:01:40;2.10;;;2.10;;
2225;SDS011;1119;48.288;8.726;2022-11-18T00:04:07;1.90;;;1.90;;
2225;SDS011;1119;48.288;8.726;2022-11-18T00:06:34;2.03;;;2.03;;
2225;SDS011;1119;48.288;8.726;2022-11-18T00:09:02;2.30;;;2.20;;
2225;SDS011;1119;48.288;8.726;2022-11-18T00:11:29;2.00;;;2.00;;
2225;SDS011;1119;48.288;8.726;2022-11-18T00:14:24;2.17;;;2.17;;
2225;SDS011;1119;48.288;8.726;2022-11-18T00:16:54;2.00;;;2.00;;
2225;SDS011;1119;48.288;8.726;2022-11-18T00:19:24;2.10;;;2.10;;
2225;SDS011;1119;48.288;8.726;2022-11-18T00:21:54;2.17;;;2.17;;
2225;SDS011;1119;48.288;8.726;2022-11-18T00:24:22;2.50;;;2.30;;
2225;SDS011;1119;48.288;8.726;2022-11-18T00:26:50;2.53;;;2.43;;
2225;SDS011;1119;48.288;8.726;2022-11-18T00:29:19;2.50;;;2.50;;
2225;SDS011;1119;48.288;8.726;2022-11-18T00:31:48;2.70;;;2.50;;
2225;SDS011;1119;48.288;8.726;2022-11-18T00:34:16;2.33;;;2.33;;
2225;SDS011;1119;48.288;8.726;2022-11-18T00:36:44;1.70;;;1.70;;
2225;SDS011;1119;48.288;8.726;2022-11-18T00:39:14;1.90;;;1.90;;
2225;SDS011;1119;48.288;8.726;2022-11-18T00:41:42;2.10;;;2.10;;
2225;SDS011;1119;48.288;8.726;2022-11-18T00:44:29;2.20;;;2.20;;
2225;SDS011;1119;48.288;8.726;2022-11-18T00:46:56;2.80;;;2.60;;
2225;SDS011;1119;48.288;8.726;2022-11-18T00:49:24;2.20;;;2.20;;
2225;SDS011;1119;48.288;8.726;2022-11-18T00:51:51;2.63;;;2.43;;
2225;SDS011;1119;48.288;8.726;2022-11-18T00:54:19;2.20;;;2.20;;
2225;SDS011;1119;48.288;8.726;2022-11-18T00:56:47;2.00;;;2.00;;
2225;SDS011;1119;48.288;8.726;2022-11-18T00:59:14;2.57;;;2.47;;
2225;SDS011;1119;48.288;8.726;2022-11-18T01:01:43;2.30;;;2.20;;
2225;SDS011;1119;48.288;8.726;2022-11-18T01:04:10;2.67;;;2.57;;
2225;SDS011;1119;48.288;8.726;2022-11-18T01:06:38;2.30;;;2.30;;
2225;SDS011;1119;48.288;8.726;2022-11-18T01:09:05;3.00;;;2.90;;
2225;SDS011;1119;48.288;8.726;2022-11-18T01:11:34;10.50;;;5.40;;
2225;SDS011;1119;48.288;8.726;2022-11-18T01:14:19;2.67;;;2.57;;
2225;SDS011;1119;48.288;8.726;2022-11-18T01:16:48;2.40;;;2.40;;
2225;SDS011;1119;48.288;8.726;2022-11-18T01:19:16;2.53;;;2.43;;
2225;SDS011;1119;48.288;8.726;2022-11-18T01:21:43;2.47;;;2.47;;
2225;SDS011;1119;48.288;8.726;2022-11-18T01:24:10;2.33;;;2.23;;
2225;SDS011;1119;48.288;8.726;2022-11-18T01:26:40;2.53;;;2.50;;
2225;SDS011;1119;48.288;8.726;2022-11-18T01:29:07;2.77;;;2.67;;
2225;SDS011;1119;48.288;8.726;2022-11-18T01:31:36;2.70;;;2.60;;
2225;SDS011;1119;48.288;8.726;2022-11-18T01:34:05;2.87;;;2.77;;
2225;SDS011;1119;48.288;8.726;2022-11-18T01:36:35;2.87;;;2.77;;
2225;SDS011;1119;48.288;8.726;2022-11-18T01:39:02;2.60;;;2.50;;
2225;SDS011;1119;48.288;8.726;2022-11-18T01:41:30;3.30;;;3.20;;
2225;SDS011;1119;48.288;8.726;2022-11-18T01:43:58;3.43;;;2.60;;
2225;SDS011;1119;48.288;8.726;2022-11-18T01:46:29;3.20;;;3.00;;
2225;SDS011;1119;48.288;8.726;2022-11-18T01:48:59;3.27;;;3.00;;
2225;SDS011;1119;48.288;8.726;2022-11-18T01:51:33;3.10;;;3.00;;
2225;SDS011;1119;48.288;8.726;2022-11-18T01:54:13;2.60;;;2.50;;
2225;SDS011;1119;48.288;8.726;2022-11-18T01:56:46;2.57;;;2.57;;
2225;SDS011;1119;48.288;8.726;2022-11-18T01:59:19;3.00;;;2.90;;
2225;SDS011;1119;48.288;8.726;2022-11-18T02:01:50;3.07;;;2.97;;
2225;SDS011;1119;48.288;8.726;2022-11-18T02:04:19;3.17;;;2.87;;
2225;SDS011;1119;48.288;8.726;2022-11-18T02:06:48;3.00;;;2.80;;
2225;SDS011;1119;48.288;8.726;2022-11-18T02:09:16;2.80;;;2.70;;
2225;SDS011;1119;48.288;8.726;2022-11-18T02:11:44;2.90;;;2.80;;
2225;SDS011;1119;48.288;8.726;2022-11-18T02:14:19;2.03;;;2.03;;
2225;SDS011;1119;48.288;8.726;2022-11-18T02:16:54;2.50;;;2.40;;
2225;SDS011;1119;48.288;8.726;2022-11-18T02:22:59;2.27;;;2.27;;
2225;SDS011;1119;48.288;8.726;2022-11-18T02:25:57;2.20;;;2.20;;
2225;SDS011;1119;48.288;8.726;2022-11-18T02:29:07;2.40;;;2.40;;
2225;SDS011;1119;48.288;8.726;2022-11-18T02:31:40;2.80;;;2.60;;
2225;SDS011;1119;48.288;8.726;2022-11-18T02:34:18;2.43;;;2.40;;
2225;SDS011;1119;48.288;8.726;2022-11-18T02:36:57;2.77;;;2.20;;
2225;SDS011;1119;48.288;8.726;2022-11-18T02:39:33;2.53;;;2.53;;
2225;SDS011;1119;48.288;8.726;2022-11-18T02:42:06;2.27;;;2.20;;
2225;SDS011;1119;48.288;8.726;2022-11-18T02:44:39;2.13;;;2.13;;
2225;SDS011;1119;48.288;8.726;2022-11-18T02:47:11;2.73;;;2.53;;
2225;SDS011;1119;48.288;8.726;2022-11-18T02:49:42;3.27;;;3.03;;
2225;SDS011;1119;48.288;8.726;2022-11-18T02:52:13;2.80;;;2.70;;
2225;SDS011;1119;48.288;8.726;2022-11-18T02:54:42;2.60;;;2.50;;
2225;SDS011;1119;48.288;8.726;2022-11-18T02:57:13;3.53;;;3.00;;
2225;SDS011;1119;48.288;8.726;2022-11-18T02:59:42;2.50;;;2.50;;
2225;SDS011;1119;48.288;8.726;2022-11-18T03:02:11;2.73;;;2.53;;
2225;SDS011;1119;48.288;8.726;2022-11-18T03:04:42;2.27;;;2.27;;
2225;SDS011;1119;48.288;8.726;2022-11-18T03:07:13;1.90;;;1.90;;
2225;SDS011;1119;48.288;8.726;2022-11-18T03:09:45;2.00;;;2.00;;
2225;SDS011;1119;48.288;8.726;2022-11-18T03:12:18;2.33;;;2.23;;
2225;SDS011;1119;48.288;8.726;2022-11-18T03:14:59;2.47;;;2.37;;
2225;SDS011;1119;48.288;8.726;2022-11-18T03:17:39;2.63;;;2.60;;
2225;SDS011;1119;48.288;8.726;2022-11-18T03:20:14;2.10;;;2.10;;
2225;SDS011;1119;48.288;8.726;2022-11-18T03:22:49;2.60;;;2.50;;
2225;SDS011;1119;48.288;8.726;2022-11-18T03:25:24;2.23;;;2.23;;
2225;SDS011;1119;48.288;8.726;2022-11-18T03:27:59;2.00;;;2.00;;
2225;SDS011;1119;48.288;8.726;2022-11-18T03:30:37;2.00;;;2.00;;
2225;SDS011;1119;48.288;8.726;2022-11-18T03:33:09;2.43;;;2.43;;
2225;SDS011;1119;48.288;8.726;2022-11-18T03:35:40;2.10;;;2.10;;
2225;SDS011;1119;48.288;8.726;2022-11-18T03:38:13;2.10;;;2.10;;
2225;SDS011;1119;48.288;8.726;2022-11-18T03:40:45;2.27;;;2.17;;
2225;SDS011;1119;48.288;8.726;2022-11-18T03:43:17;2.10;;;2.10;;
2225;SDS011;1119;48.288;8.726;2022-11-18T03:45:50;2.20;;;2.20;;
2225;SDS011;1119;48.288;8.726;2022-11-18T03:48:21;1.87;;;1.87;;
2225;SDS011;1119;48.288;8.726;2022-11-18T03:50:53;1.93;;;1.93;;
2225;SDS011;1119;48.288;8.726;2022-11-18T03:53:25;2.20;;;2.20;;
2225;SDS011;1119;48.288;8.726;2022-11-18T03:55:57;2.03;;;2.03;;
2225;SDS011;1119;48.288;8.726;2022-11-18T03:58:32;2.13;;;2.03;;
2225;SDS011;1119;48.288;8.726;2022-11-18T04:01:07;2.30;;;2.20;;
2225;SDS011;1119;48.288;8.726;2022-11-18T04:03:39;1.90;;;1.90;;
2225;SDS011;1119;48.288;8.726;2022-11-18T04:06:08;1.70;;;1.70;;
2225;SDS011;1119;48.288;8.726;2022-11-18T04:08:46;2.17;;;2.07;;
2225;SDS011;1119;48.288;8.726;2022-11-18T04:11:23;2.13;;;2.00;;
2225;SDS011;1119;48.288;8.726;2022-11-18T04:14:13;2.00;;;2.00;;
2225;SDS011;1119;48.288;8.726;2022-11-18T04:16:48;1.70;;;1.70;;
2225;SDS011;1119;48.288;8.726;2022-11-18T04:19:17;1.73;;;1.73;;
2225;SDS011;1119;48.288;8.726;2022-11-18T04:21:45;1.97;;;1.87;;
2225;SDS011;1119;48.288;8.726;2022-11-18T04:24:14;2.00;;;1.90;;
2225;SDS011;1119;48.288;8.726;2022-11-18T04:26:41;1.93;;;1.93;;
2225;SDS011;1119;48.288;8.726;2022-11-18T04:29:09;1.70;;;1.70;;
2225;SDS011;1119;48.288;8.726;2022-11-18T04:31:37;1.90;;;1.90;;
2225;SDS011;1119;48.288;8.726;2022-11-18T04:34:05;4.03;;;2.10;;
2225;SDS011;1119;48.288;8.726;2022-11-18T04:36:33;1.90;;;1.90;;
2225;SDS011;1119;48.288;8.726;2022-11-18T04:39:00;2.53;;;2.40;;
2225;SDS011;1119;48.288;8.726;2022-11-18T04:41:27;2.50;;;2.40;;
2225;SDS011;1119;48.288;8.726;2022-11-18T04:44:08;2.47;;;2.10;;
2225;SDS011;1119;48.288;8.726;2022-11-18T04:46:38;2.17;;;2.07;;
2225;SDS011;1119;48.288;8.726;2022-11-18T04:49:08;2.63;;;2.43;;
2225;SDS011;1119;48.288;8.726;2022-11-18T04:51:38;2.70;;;2.60;;
2225;SDS011;1119;48.288;8.726;2022-11-18T04:54:06;2.20;;;2.20;;
2225;SDS011;1119;48.288;8.726;2022-11-18T04:56:34;2.00;;;2.00;;
2225;SDS011;1119;48.288;8.726;2022-11-18T04:59:02;2.00;;;2.00;;
2225;SDS011;1119;48.288;8.726;2022-11-18T05:01:30;1.70;;;1.70;;
2225;SDS011;1119;48.288;8.726;2022-11-18T05:03:58;2.10;;;2.10;;
2225;SDS011;1119;48.288;8.726;2022-11-18T05:06:27;2.30;;;2.30;;
2225;SDS011;1119;48.288;8.726;2022-11-18T05:08:56;2.27;;;2.17;;
2225;SDS011;1119;48.288;8.726;2022-11-18T05:11:24;3.23;;;2.70;;
2225;SDS011;1119;48.288;8.726;2022-11-18T05:14:10;2.00;;;2.00;;
2225;SDS011;1119;48.288;8.726;2022-11-18T05:16:37;2.13;;;2.13;;
2225;SDS011;1119;48.288;8.726;2022-11-18T05:19:05;2.07;;;2.07;;
2225;SDS011;1119;48.288;8.726;2022-11-18T05:21:34;2.13;;;2.13;;
2225;SDS011;1119;48.288;8.726;2022-11-18T05:24:02;2.30;;;2.20;;
2225;SDS011;1119;48.288;8.726;2022-11-18T05:26:31;2.37;;;2.30;;
2225;SDS011;1119;48.288;8.726;2022-11-18T05:28:58;1.93;;;1.93;;
2225;SDS011;1119;48.288;8.726;2022-11-18T05:31:25;2.50;;;2.40;;
2225;SDS011;1119;48.288;8.726;2022-11-18T05:33:53;2.97;;;2.87;;
2225;SDS011;1119;48.288;8.726;2022-11-18T05:36:21;2.37;;;2.37;;
2225;SDS011;1119;48.288;8.726;2022-11-18T05:38:50;2.57;;;2.57;;
2225;SDS011;1119;48.288;8.726;2022-11-18T05:41:17;2.53;;;2.53;;
2225;SDS011;1119;48.288;8.726;2022-11-18T05:44:03;2.30;;;2.30;;
2225;SDS011;1119;48.288;8.726;2022-11-18T05:46:31;1.93;;;1.90;;
2225;SDS011;1119;48.288;8.726;2022-11-18T05:48:59;2.00;;;2.00;;
2225;SDS011;1119;48.288;8.726;2022-11-18T05:51:26;2.27;;;2.27;;
2225;SDS011;1119;48.288;8.726;2022-11-18T05:53:55;2.40;;;2.30;;
2225;SDS011;1119;48.288;8.726;2022-11-18T05:56:24;2.50;;;2.50;;
2225;SDS011;1119;48.288;8.726;2022-11-18T05:58:54;2.57;;;2.43;;
2225;SDS011;1119;48.288;8.726;2022-11-18T06:01:23;2.00;;;2.00;;
2225;SDS011;1119;48.288;8.726;2022-11-18T06:03:56;2.63;;;2.63;;
2225;SDS011;1119;48.288;8.726;2022-11-18T06:06:24;1.90;;;1.90;;
2225;SDS011;1119;48.288;8.726;2022-11-18T06:08:53;2.20;;;2.20;;
2225;SDS011;1119;48.288;8.726;2022-11-18T06:11:27;2.00;;;2.00;;
2225;SDS011;1119;48.288;8.726;2022-11-18T06:13:58;3.00;;;2.90;;
2225;SDS011;1119;48.288;8.726;2022-11-18T06:16:29;2.73;;;2.63;;
2225;SDS011;1119;48.288;8.726;2022-11-18T06:18:57;2.20;;;2.20;;
2225;SDS011;1119;48.288;8.726;2022-11-18T06:21:27;2.20;;;2.20;;
2225;SDS011;1119;48.288;8.726;2022-11-18T06:23:55;1.93;;;1.93;;
2225;SDS011;1119;48.288;8.726;2022-11-18T06:26:25;2.03;;;2.03;;
2225;SDS011;1119;48.288;8.726;2022-11-18T06:28:53;2.43;;;2.43;;
2225;SDS011;1119;48.288;8.726;2022-11-18T06:31:22;2.10;;;2.10;;
2225;SDS011;1119;48.288;8.726;2022-11-18T06:33:49;3.03;;;2.83;;
2225;SDS011;1119;48.288;8.726;2022-11-18T06:36:16;2.90;;;2.60;;
2225;SDS011;1119;48.288;8.726;2022-11-18T06:38:44;2.90;;;2.80;;
2225;SDS011;1119;48.288;8.726;2022-11-18T06:41:13;2.30;;;2.30;;
2225;SDS011;1119;48.288;8.726;2022-11-18T06:43:40;2.97;;;2.87;;
2225;SDS011;1119;48.288;8.726;2022-11-18T06:46:07;3.37;;;3.17;;
2225;SDS011;1119;48.288;8.726;2022-11-18T06:49:05;3.50;;;3.20;;
2225;SDS011;1119;48.288;8.726;2022-11-18T06:51:33;2.93;;;2.80;;
2225;SDS011;1119;48.288;8.726;2022-11-18T06:54:00;3.27;;;3.17;;
2225;SDS011;1119;48.288;8.726;2022-11-18T06:56:29;2.50;;;2.40;;
2225;SDS011;1119;48.288;8.726;2022-11-18T06:58:57;2.77;;;2.67;;
2225;SDS011;1119;48.288;8.726;2022-11-18T07:01:25;3.00;;;2.90;;
2225;SDS011;1119;48.288;8.726;2022-11-18T07:03:56;2.77;;;2.77;;
2225;SDS011;1119;48.288;8.726;2022-11-18T07:06:25;3.00;;;2.90;;
2225;SDS011;1119;48.288;8.726;2022-11-18T07:08:53;2.40;;;2.30;;
2225;SDS011;1119;48.288;8.726;2022-11-18T07:11:21;2.47;;;2.40;;
2225;SDS011;1119;48.288;8.726;2022-11-18T07:13:52;2.53;;;2.53;;
2225;SDS011;1119;48.288;8.726;2022-11-18T07:16:20;2.73;;;2.63;;
2225;SDS011;1119;48.288;8.726;2022-11-18T07:18:49;2.70;;;2.60;;
2225;SDS011;1119;48.288;8.726;2022-11-18T07:21:18;3.23;;;3.03;;
2225;SDS011;1119;48.288;8.726;2022-11-18T07:23:47;4.70;;;2.43;;
2225;SDS011;1119;48.288;8.726;2022-11-18T07:26:15;2.70;;;2.60;;
2225;SDS011;1119;48.288;8.726;2022-11-18T07:28:42;2.50;;;2.40;;
2225;SDS011;1119;48.288;8.726;2022-11-18T07:31:12;3.07;;;2.97;;
2225;SDS011;1119;48.288;8.726;2022-11-18T07:33:41;2.33;;;2.33;;
2225;SDS011;1119;48.288;8.726;2022-11-18T07:36:10;2.97;;;2.87;;
2225;SDS011;1119;48.288;8.726;2022-11-18T07:38:39;2.70;;;2.70;;
2225;SDS011;1119;48.288;8.726;2022-11-18T07:41:07;2.80;;;2.80;;
2225;SDS011;1119;48.288;8.726;2022-11-18T07:43:37;2.90;;;2.80;;
2225;SDS011;1119;48.288;8.726;2022-11-18T07:46:09;4.60;;;2.53;;
2225;SDS011;1119;48.288;8.726;2022-11-18T07:48:40;3.10;;;3.00;;
2225;SDS011;1119;48.288;8.726;2022-11-18T07:51:09;3.37;;;3.27;;
2225;SDS011;1119;48.288;8.726;2022-11-18T07:53:37;3.10;;;3.00;;
2225;SDS011;1119;48.288;8.726;2022-11-18T07:56:05;2.33;;;2.33;;
2225;SDS011;1119;48.288;8.726;2022-11-18T07:58:34;2.80;;;2.70;;
2225;SDS011;1119;48.288;8.726;2022-11-18T08:01:05;3.20;;;3.10;;
2225;SDS011;1119;48.288;8.726;2022-11-18T08:03:35;2.93;;;2.83;;
2225;SDS011;1119;48.288;8.726;2022-11-18T08:06:03;2.87;;;2.87;;
2225;SDS011;1119;48.288;8.726;2022-11-18T08:08:33;2.87;;;2.67;;
2225;SDS011;1119;48.288;8.726;2022-11-18T08:11:01;2.97;;;2.87;;
2225;SDS011;1119;48.288;8.726;2022-11-18T08:13:31;3.00;;;2.90;;
2225;SDS011;1119;48.288;8.726;2022-11-18T08:15:59;2.93;;;2.83;;
2225;SDS011;1119;48.288;8.726;2022-11-18T08:18:27;2.40;;;2.30;;
2225;SDS011;1119;48.288;8.726;2022-11-18T08:20:57;2.23;;;2.13;;
2225;SDS011;1119;48.288;8.726;2022-11-18T08:23:28;2.60;;;2.50;;
2225;SDS011;1119;48.288;8.726;2022-11-18T08:26:00;2.57;;;2.47;;
2225;SDS011;1119;48.288;8.726;2022-11-18T08:28:29;2.57;;;2.57;;
2225;SDS011;1119;48.288;8.726;2022-11-18T08:30:57;2.30;;;2.20;;
2225;SDS011;1119;48.288;8.726;2022-11-18T08:33:24;2.13;;;2.00;;
2225;SDS011;1119;48.288;8.726;2022-11-18T08:35:53;3.00;;;2.90;;
2225;SDS011;1119;48.288;8.726;2022-11-18T08:38:22;2.93;;;2.83;;
2225;SDS011;1119;48.288;8.726;2022-11-18T08:40:50;1.90;;;1.90;;
2225;SDS011;1119;48.288;8.726;2022-11-18T08:43:18;2.57;;;2.47;;
2225;SDS011;1119;48.288;8.726;2022-11-18T08:45:47;2.73;;;2.63;;
2225;SDS011;1119;48.288;8.726;2022-11-18T08:48:14;3.00;;;2.83;;
2225;SDS011;1119;48.288;8.726;2022-11-18T08:50:42;2.73;;;2.63;;
2225;SDS011;1119;48.288;8.726;2022-11-18T08:53:10;2.30;;;2.30;;
2225;SDS011;1119;48.288;8.726;2022-11-18T08:55:41;2.30;;;2.30;;
2225;SDS011;1119;48.288;8.726;2022-11-18T08:58:09;2.77;;;2.67;;
2225;SDS011;1119;48.288;8.726;2022-11-18T09:00:36;1.93;;;1.83;;
2225;SDS011;1119;48.288;8.726;2022-11-18T09:03:03;7.47;;;6.77;;
2225;SDS011;1119;48.288;8.726;2022-11-18T09:05:31;5.63;;;4.70;;
2225;SDS011;1119;48.288;8.726;2022-11-18T09:07:58;2.73;;;2.57;;
2225;SDS011;1119;48.288;8.726;2022-11-18T09:10:25;2.97;;;2.77;;
2225;SDS011;1119;48.288;8.726;2022-11-18T09:12:54;2.37;;;2.30;;
2225;SDS011;1119;48.288;8.726;2022-11-18T09:15:22;2.30;;;2.30;;
2225;SDS011;1119;48.288;8.726;2022-11-18T09:17:50;2.43;;;2.30;;
2225;SDS011;1119;48.288;8.726;2022-11-18T09:20:18;2.40;;;2.33;;
2225;SDS011;1119;48.288;8.726;2022-11-18T09:22:45;3.60;;;3.40;;
2225;SDS011;1119;48.288;8.726;2022-11-18T09:25:13;3.63;;;2.70;;
2225;SDS011;1119;48.288;8.726;2022-11-18T09:27:40;3.87;;;3.67;;
2225;SDS011;1119;48.288;8.726;2022-11-18T09:30:09;2.60;;;2.50;;
2225;SDS011;1119;48.288;8.726;2022-11-18T09:32:37;2.60;;;2.47;;
2225;SDS011;1119;48.288;8.726;2022-11-18T09:35:05;3.13;;;2.93;;
2225;SDS011;1119;48.288;8.726;2022-11-18T09:37:32;3.23;;;2.87;;
2225;SDS011;1119;48.288;8.726;2022-11-18T09:40:00;3.17;;;3.07;;
2225;SDS011;1119;48.288;8.726;2022-11-18T09:42:37;2.80;;;2.70;;
2225;SDS011;1119;48.288;8.726;2022-11-18T09:45:20;2.80;;;2.70;;
2225;SDS011;1119;48.288;8.726;2022-11-18T09:47:50;2.57;;;2.47;;
2225;SDS011;1119;48.288;8.726;2022-11-18T09:50:22;2.80;;;2.70;;
2225;SDS011;1119;48.288;8.726;2022-11-18T09:52:54;2.60;;;2.57;;
2225;SDS011;1119;48.288;8.726;2022-11-18T09:55:35;3.37;;;2.40;;
2225;SDS011;1119;48.288;8.726;2022-11-18T09:58:05;2.80;;;2.70;;
2225;SDS011;1119;48.288;8.726;2022-11-18T10:00:39;2.57;;;2.47;;
2225;SDS011;1119;48.288;8.726;2022-11-18T10:03:10;2.47;;;2.37;;
2225;SDS011;1119;48.288;8.726;2022-11-18T10:05:48;2.50;;;2.50;;
2225;SDS011;1119;48.288;8.726;2022-11-18T10:08:23;2.40;;;2.37;;
2225;SDS011;1119;48.288;8.726;2022-11-18T10:10:57;1.83;;;1.83;;
2225;SDS011;1119;48.288;8.726;2022-11-18T10:13:37;8.33;;;3.00;;
2225;SDS011;1119;48.288;8.726;2022-11-18T10:16:21;2.50;;;2.40;;
2225;SDS011;1119;48.288;8.726;2022-11-18T10:18:59;2.27;;;2.20;;
2225;SDS011;1119;48.288;8.726;2022-11-18T10:21:41;2.40;;;2.37;;
2225;SDS011;1119;48.288;8.726;2022-11-18T10:24:21;3.40;;;3.10;;
2225;SDS011;1119;48.288;8.726;2022-11-18T10:26:53;3.03;;;2.93;;
2225;SDS011;1119;48.288;8.726;2022-11-18T10:29:22;2.80;;;2.63;;
2225;SDS011;1119;48.288;8.726;2022-11-18T10:31:55;2.43;;;2.33;;
2225;SDS011;1119;48.288;8.726;2022-11-18T10:34:28;1.90;;;1.90;;
2225;SDS011;1119;48.288;8.726;2022-11-18T10:36:57;2.03;;;2.00;;
2225;SDS011;1119;48.288;8.726;2022-11-18T10:39:26;2.17;;;2.07;;
2225;SDS011;1119;48.288;8.726;2022-11-18T10:41:55;2.20;;;2.20;;
2225;SDS011;1119;48.288;8.726;2022-11-18T10:44:31;2.50;;;2.40;;
2225;SDS011;1119;48.288;8.726;2022-11-18T10:49:54;2.30;;;2.20;;
2225;SDS011;1119;48.288;8.726;2022-11-18T10:52:24;2.97;;;2.80;;
2225;SDS011;1119;48.288;8.726;2022-11-18T10:55:04;2.57;;;2.47;;
2225;SDS011;1119;48.288;8.726;2022-11-18T10:57:46;3.13;;;2.93;;
2225;SDS011;1119;48.288;8.726;2022-11-18T11:00:32;2.93;;;2.80;;
2225;SDS011;1119;48.288;8.726;2022-11-18T11:03:28;2.90;;;2.80;;
2225;SDS011;1119;48.288;8.726;2022-11-18T11:06:20;15.63;;;7.43;;
2225;SDS011;1119;48.288;8.726;2022-11-18T11:08:59;3.87;;;3.57;;
2225;SDS011;1119;48.288;8.726;2022-11-18T11:11:30;3.00;;;2.80;;
2225;SDS011;1119;48.288;8.726;2022-11-18T11:14:10;5.43;;;3.43;;
2225;SDS011;1119;48.288;8.726;2022-11-18T11:16:46;3.80;;;3.50;;
2225;SDS011;1119;48.288;8.726;2022-11-18T11:19:25;2.17;;;2.17;;
2225;SDS011;1119;48.288;8.726;2022-11-18T11:22:01;3.30;;;3.10;;
2225;SDS011;1119;48.288;8.726;2022-11-18T11:24:30;2.27;;;1.97;;
2225;SDS011;1119;48.288;8.726;2022-11-18T11:27:02;1.87;;;1.87;;
2225;SDS011;1119;48.288;8.726;2022-11-18T11:30:01;2.40;;;2.30;;
2225;SDS011;1119;48.288;8.726;2022-11-18T11:32:41;2.97;;;2.43;;
2225;SDS011;1119;48.288;8.726;2022-11-18T11:36:02;2.73;;;2.63;;
2225;SDS011;1119;48.288;8.726;2022-11-18T11:38:47;2.33;;;2.20;;
2225;SDS011;1119;48.288;8.726;2022-11-18T11:41:25;3.10;;;2.93;;
2225;SDS011;1119;48.288;8.726;2022-11-18T11:44:02;2.70;;;2.60;;
2225;SDS011;1119;48.288;8.726;2022-11-18T11:46:52;2.70;;;2.50;;
2225;SDS011;1119;48.288;8.726;2022-11-18T11:49:51;3.37;;;3.07;;
2225;SDS011;1119;48.288;8.726;2022-11-18T11:52:30;2.20;;;2.00;;
2225;SDS011;1119;48.288;8.726;2022-11-18T11:55:10;2.97;;;2.00;;
2225;SDS011;1119;48.288;8.726;2022-11-18T11:57:52;2.50;;;2.30;;
2225;SDS011;1119;48.288;8.726;2022-11-18T12:00:34;2.37;;;2.20;;
2225;SDS011;1119;48.288;8.726;2022-11-18T12:03:17;2.60;;;2.40;;
2225;SDS011;1119;48.288;8.726;2022-11-18T12:06:10;4.20;;;3.90;;
2225;SDS011;1119;48.288;8.726;2022-11-18T12:08:42;4.13;;;3.77;;
2225;SDS011;1119;48.288;8.726;2022-11-18T12:11:19;7.40;;;6.80;;
2225;SDS011;1119;48.288;8.726;2022-11-18T12:13:55;2.00;;;1.90;;
2225;SDS011;1119;48.288;8.726;2022-11-18T12:16:29;3.80;;;3.03;;
2225;SDS011;1119;48.288;8.726;2022-11-18T12:19:07;2.63;;;2.53;;
2225;SDS011;1119;48.288;8.726;2022-11-18T12:21:51;6.60;;;4.13;;
2225;SDS011;1119;48.288;8.726;2022-11-18T12:24:25;2.53;;;2.43;;
2225;SDS011;1119;48.288;8.726;2022-11-18T12:26:59;2.57;;;2.47;;
2225;SDS011;1119;48.288;8.726;2022-11-18T12:29:30;2.40;;;2.17;;
2225;SDS011;1119;48.288;8.726;2022-11-18T12:32:24;1.70;;;1.70;;
2225;SDS011;1119;48.288;8.726;2022-11-18T12:34:59;1.90;;;1.80;;
2225;SDS011;1119;48.288;8.726;2022-11-18T12:37:39;1.87;;;1.80;;
2225;SDS011;1119;48.288;8.726;2022-11-18T12:46:47;1.60;;;1.50;;
2225;SDS011;1119;48.288;8.726;2022-11-18T12:52:44;2.53;;;2.43;;
2225;SDS011;1119;48.288;8.726;2022-11-18T12:55:18;2.80;;;2.47;;
2225;SDS011;1119;48.288;8.726;2022-11-18T12:57:52;2.30;;;2.10;;
2225;SDS011;1119;48.288;8.726;2022-11-18T13:00:32;2.80;;;2.60;;
2225;SDS011;1119;48.288;8.726;2022-11-18T13:03:23;4.10;;;2.37;;
2225;SDS011;1119;48.288;8.726;2022-11-18T13:05:58;2.60;;;2.50;;
2225;SDS011;1119;48.288;8.726;2022-11-18T13:08:31;2.87;;;2.67;;
2225;SDS011;1119;48.288;8.726;2022-11-18T13:11:03;3.60;;;2.60;;
2225;SDS011;1119;48.288;8.726;2022-11-18T13:13:55;6.80;;;2.40;;
2225;SDS011;1119;48.288;8.726;2022-11-18T13:16:42;2.43;;;2.30;;
2225;SDS011;1119;48.288;8.726;2022-11-18T13:19:27;6.60;;;3.10;;
2225;SDS011;1119;48.288;8.726;2022-11-18T13:21:55;3.27;;;2.60;;
2225;SDS011;1119;48.288;8.726;2022-11-18T13:24:42;2.03;;;1.93;;
2225;SDS011;1119;48.288;8.726;2022-11-18T13:27:23;2.00;;;2.00;;
2225;SDS011;1119;48.288;8.726;2022-11-18T13:30:13;3.00;;;2.30;;
2225;SDS011;1119;48.288;8.726;2022-11-18T13:32:43;3.73;;;1.97;;
2225;SDS011;1119;48.288;8.726;2022-11-18T13:35:13;2.67;;;2.57;;
2225;SDS011;1119;48.288;8.726;2022-11-18T13:37:48;3.37;;;2.97;;
2225;SDS011;1119;48.288;8.726;2022-11-18T13:40:20;3.90;;;2.73;;
2225;SDS011;1119;48.288;8.726;2022-11-18T13:42:50;2.67;;;2.30;;
2225;SDS011;1119;48.288;8.726;2022-11-18T13:45:19;2.13;;;2.00;;
2225;SDS011;1119;48.288;8.726;2022-11-18T13:47:52;3.20;;;3.00;;
2225;SDS011;1119;48.288;8.726;2022-11-18T13:50:25;3.60;;;3.40;;
2225;SDS011;1119;48.288;8.726;2022-11-18T13:53:00;3.37;;;3.20;;
2225;SDS011;1119;48.288;8.726;2022-11-18T13:55:35;3.43;;;3.23;;
2225;SDS011;1119;48.288;8.726;2022-11-18T13:58:22;2.53;;;2.43;;
2225;SDS011;1119;48.288;8.726;2022-11-18T14:01:13;4.80;;;3.50;;
2225;SDS011;1119;48.288;8.726;2022-11-18T14:03:47;2.90;;;2.67;;
2225;SDS011;1119;48.288;8.726;2022-11-18T14:06:23;4.97;;;4.77;;
2225;SDS011;1119;48.288;8.726;2022-11-18T14:11:56;4.60;;;2.37;;
2225;SDS011;1119;48.288;8.726;2022-11-18T14:14:27;2.60;;;2.50;;
2225;SDS011;1119;48.288;8.726;2022-11-18T14:17:11;2.10;;;2.10;;
2225;SDS011;1119;48.288;8.726;2022-11-18T14:19:43;4.93;;;3.60;;
2225;SDS011;1119;48.288;8.726;2022-11-18T14:22:12;2.90;;;2.80;;
2225;SDS011;1119;48.288;8.726;2022-11-18T14:24:42;2.83;;;2.63;;
2225;SDS011;1119;48.288;8.726;2022-11-18T14:33:23;3.63;;;2.80;;
2225;SDS011;1119;48.288;8.726;2022-11-18T14:35:52;2.70;;;2.60;;
2225;SDS011;1119;48.288;8.726;2022-11-18T14:38:24;2.70;;;2.60;;
2225;SDS011;1119;48.288;8.726;2022-11-18T14:41:03;3.00;;;2.80;;
2225;SDS011;1119;48.288;8.726;2022-11-18T14:43:34;3.87;;;3.43;;
2225;SDS011;1119;48.288;8.726;2022-11-18T14:46:02;3.40;;;3.10;;
2225;SDS011;1119;48.288;8.726;2022-11-18T14:48:33;4.27;;;3.60;;
2225;SDS011;1119;48.288;8.726;2022-11-18T14:51:00;3.40;;;3.20;;
2225;SDS011;1119;48.288;8.726;2022-11-18T14:53:28;3.83;;;3.67;;
2225;SDS011;1119;48.288;8.726;2022-11-18T14:55:55;3.90;;;3.60;;
2225;SDS011;1119;48.288;8.726;2022-11-18T14:58:25;3.90;;;3.60;;
2225;SDS011;1119;48.288;8.726;2022-11-18T15:00:53;5.87;;;5.40;;
2225;SDS011;1119;48.288;8.726;2022-11-18T15:03:20;4.10;;;3.70;;
2225;SDS011;1119;48.288;8.726;2022-11-18T15:05:49;3.43;;;3.23;;
2225;SDS011;1119;48.288;8.726;2022-11-18T15:08:17;3.60;;;3.33;;
2225;SDS011;1119;48.288;8.726;2022-11-18T15:10:45;4.60;;;4.30;;
2225;SDS011;1119;48.288;8.726;2022-11-18T15:13:12;3.27;;;3.10;;
2225;SDS011;1119;48.288;8.726;2022-11-18T15:15:39;15.27;;;13.90;;
2225;SDS011;1119;48.288;8.726;2022-11-18T15:18:07;14.13;;;13.03;;
2225;SDS011;1119;48.288;8.726;2022-11-18T15:20:35;11.80;;;11.00;;
2225;SDS011;1119;48.288;8.726;2022-11-18T15:23:03;6.80;;;6.30;;
2225;SDS011;1119;48.288;8.726;2022-11-18T15:25:31;4.00;;;3.70;;
2225;SDS011;1119;48.288;8.726;2022-11-18T15:27:58;6.10;;;4.60;;
2225;SDS011;1119;48.288;8.726;2022-11-18T15:30:26;4.77;;;4.20;;
2225;SDS011;1119;48.288;8.726;2022-11-18T15:32:53;4.73;;;4.40;;
2225;SDS011;1119;48.288;8.726;2022-11-18T15:35:21;3.90;;;3.70;;
2225;SDS011;1119;48.288;8.726;2022-11-18T15:37:50;4.03;;;3.83;;
2225;SDS011;1119;48.288;8.726;2022-11-18T15:40:19;5.37;;;4.93;;
2225;SDS011;1119;48.288;8.726;2022-11-18T15:42:47;4.33;;;4.10;;
2225;SDS011;1119;48.288;8.726;2022-11-18T15:45:15;6.40;;;2.90;;
2225;SDS011;1119;48.288;8.726;2022-11-18T15:47:43;2.73;;;2.53;;
2225;SDS011;1119;48.288;8.726;2022-11-18T15:50:12;2.70;;;2.60;;
2225;SDS011;1119;48.288;8.726;2022-11-18T15:52:41;3.43;;;3.03;;
2225;SDS011;1119;48.288;8.726;2022-11-18T15:55:09;3.17;;;3.03;;
2225;SDS011;1119;48.288;8.726;2022-11-18T15:57:38;3.20;;;3.10;;
2225;SDS011;1119;48.288;8.726;2022-11-18T16:00:08;2.97;;;2.77;;
2225;SDS011;1119;48.288;8.726;2022-11-18T16:02:51;8.13;;;3.77;;
2225;SDS011;1119;48.288;8.726;2022-11-18T16:05:20;4.13;;;3.83;;
2225;SDS011;1119;48.288;8.726;2022-11-18T16:08:02;3.10;;;2.93;;
2225;SDS011;1119;48.288;8.726;2022-11-18T16:10:31;4.67;;;4.27;;
2225;SDS011;1119;48.288;8.726;2022-11-18T16:13:20;4.53;;;4.10;;